Time;durP1;ratioP1;P1;durP2;ratioP2;P2;SDS_P1;SDS_P2;PMS_P1;PMS_P2;Temp;Humidity;BMP_temperature;BMP_pressure;BME280_temperature;BME280_humidity;BME280_pressure;Samples;Min_cycle;Max_cycle;Signal;HPM_P1;HPM_P2
2022/03/17 00:03:01;;;;;;;85.97;52.63;;;;;;;;;;5050780;28;20040;-70
2022/03/17 00:06:06;;;;;;;86.38;55.65;;;;;;;;;;5050982;28;20051;-70
2022/03/17 00:09:10;;;;;;;82.75;51.75;;;;;;;;;;5049703;28;20036;-69
2022/03/17 00:12:14;;;;;;;87.30;57.83;;;;;;;;;;5050485;28;20076;-68
2022/03/17 00:15:19;;;;;;;78.85;53.88;;;;;;;;;;5050480;28;20064;-68
2022/03/17 00:18:23;;;;;;;79.88;52.95;;;;;;;;;;5050683;28;20048;-69
2022/03/17 00:21:28;;;;;;;75.25;52.58;;;;;;;;;;5050709;28;20044;-69
2022/03/17 00:24:32;;;;;;;77.25;54.20;;;;;;;;;;5050881;28;20130;-69
2022/03/17 00:27:37;;;;;;;85.22;55.75;;;;;;;;;;5050677;28;20040;-70
2022/03/17 00:30:41;;;;;;;87.40;56.35;;;;;;;;;;5050499;28;20048;-68
2022/03/17 00:33:46;;;;;;;84.72;59.42;;;;;;;;;;5050782;28;20052;-69
2022/03/17 00:36:50;;;;;;;91.53;61.33;;;;;;;;;;5050264;28;20040;-69
2022/03/17 00:39:55;;;;;;;91.72;58.63;;;;;;;;;;5050312;28;20041;-69
2022/03/17 00:43:00;;;;;;;84.75;58.63;;;;;;;;;;5050689;28;20040;-69
2022/03/17 00:46:05;;;;;;;93.90;59.22;;;;;;;;;;5050237;28;20060;-69
2022/03/17 00:49:12;;;;;;;83.90;56.90;;;;;;;;;;5050613;28;20061;-69
2022/03/17 00:52:20;;;;;;;92.20;58.58;;;;;;;;;;5039829;28;20508;-69
2022/03/17 00:55:24;;;;;;;82.25;56.92;;;;;;;;;;5053503;28;20048;-69
2022/03/17 00:58:29;;;;;;;86.30;56.83;;;;;;;;;;5053985;28;20036;-70
2022/03/17 01:01:34;;;;;;;89.22;55.33;;;;;;;;;;5053656;28;20043;-69
2022/03/17 01:04:39;;;;;;;88.82;56.33;;;;;;;;;;5053934;28;20044;-70
2022/03/17 01:07:44;;;;;;;77.97;52.60;;;;;;;;;;5053659;28;20056;-69
2022/03/17 01:10:49;;;;;;;75.40;52.08;;;;;;;;;;5053477;28;20052;-69
2022/03/17 01:13:54;;;;;;;73.95;50.45;;;;;;;;;;5053743;28;20511;-69
2022/03/17 01:16:58;;;;;;;80.22;50.70;;;;;;;;;;5053472;28;20064;-69
2022/03/17 01:20:03;;;;;;;73.22;49.40;;;;;;;;;;5053715;28;20052;-67
2022/03/17 01:23:09;;;;;;;70.10;48.42;;;;;;;;;;5053353;28;20040;-70
2022/03/17 01:26:13;;;;;;;68.65;47.72;;;;;;;;;;5053451;28;20397;-69
2022/03/17 01:29:19;;;;;;;75.72;47.28;;;;;;;;;;5053351;28;20044;-69
2022/03/17 01:32:25;;;;;;;73.15;48.50;;;;;;;;;;5053093;28;20052;-69
2022/03/17 01:35:29;;;;;;;77.03;48.20;;;;;;;;;;5053579;28;20044;-70
2022/03/17 01:38:34;;;;;;;69.00;47.25;;;;;;;;;;5053092;28;20409;-68
2022/03/17 01:41:39;;;;;;;71.40;46.35;;;;;;;;;;5053211;28;20532;-69
2022/03/17 01:44:43;;;;;;;68.82;47.30;;;;;;;;;;5052456;28;20043;-68
2022/03/17 01:47:48;;;;;;;66.70;45.05;;;;;;;;;;5052079;28;20040;-68
2022/03/17 01:50:53;;;;;;;66.57;43.65;;;;;;;;;;5051991;28;20052;-70
2022/03/17 01:53:57;;;;;;;61.97;39.17;;;;;;;;;;5052321;28;20048;-69
2022/03/17 01:57:05;;;;;;;63.35;38.13;;;;;;;;;;5029109;28;20147;-69
2022/03/17 02:00:13;;;;;;;57.20;39.65;;;;;;;;;;5052759;28;20504;-69
2022/03/17 02:03:18;;;;;;;59.03;40.50;;;;;;;;;;5051529;28;20040;-70
2022/03/17 02:06:23;;;;;;;61.53;38.72;;;;;;;;;;5052878;28;20052;-70
2022/03/17 02:09:28;;;;;;;58.28;38.90;;;;;;;;;;5052736;28;20036;-69
2022/03/17 02:15:55;;;;;;;59.20;40.15;;;;;;;;;;5052426;28;20132;-69
2022/03/17 02:18:59;;;;;;;59.95;40.05;;;;;;;;;;5052384;28;20503;-69
2022/03/17 02:22:04;;;;;;;58.10;39.42;;;;;;;;;;5051640;28;20040;-69
2022/03/17 02:28:32;;;;;;;57.80;39.50;;;;;;;;;;5052390;28;20515;-69
2022/03/17 02:31:38;;;;;;;58.80;37.97;;;;;;;;;;5052234;28;20048;-69
2022/03/17 02:34:44;;;;;;;60.10;40.80;;;;;;;;;;5052365;28;20052;-70
2022/03/17 02:37:48;;;;;;;60.65;40.35;;;;;;;;;;5052117;28;20044;-69
2022/03/17 02:40:53;;;;;;;64.22;41.42;;;;;;;;;;5051918;28;20044;-69
2022/03/17 02:43:57;;;;;;;65.03;40.47;;;;;;;;;;5052329;28;20045;-69
2022/03/17 02:47:01;;;;;;;63.88;42.22;;;;;;;;;;5052284;28;20508;-69
2022/03/17 02:50:07;;;;;;;68.32;45.75;;;;;;;;;;5051829;28;20040;-70
2022/03/17 02:53:12;;;;;;;67.05;44.65;;;;;;;;;;5051750;28;20052;-70
2022/03/17 02:56:16;;;;;;;66.72;45.28;;;;;;;;;;5052116;28;20040;-69
2022/03/17 02:59:20;;;;;;;72.60;44.85;;;;;;;;;;5051759;28;20048;-69
2022/03/17 03:02:24;;;;;;;68.45;44.13;;;;;;;;;;5051928;28;20064;-68
2022/03/17 03:05:29;;;;;;;66.63;43.05;;;;;;;;;;5051490;28;20044;-69
2022/03/17 03:08:34;;;;;;;62.65;44.25;;;;;;;;;;5051442;28;20042;-68
2022/03/17 03:11:38;;;;;;;69.25;44.90;;;;;;;;;;5039078;28;20056;-69
2022/03/17 03:14:43;;;;;;;66.95;44.78;;;;;;;;;;5051008;28;20404;-68
2022/03/17 03:17:47;;;;;;;73.47;47.28;;;;;;;;;;5050273;28;20048;-68
2022/03/17 03:20:51;;;;;;;79.50;51.00;;;;;;;;;;5051049;28;20040;-69
2022/03/17 03:23:56;;;;;;;75.65;48.72;;;;;;;;;;5051112;28;20397;-68
2022/03/17 03:27:00;;;;;;;71.28;48.63;;;;;;;;;;5051308;28;20048;-69
2022/03/17 03:30:04;;;;;;;69.88;49.92;;;;;;;;;;5050870;28;20126;-69
2022/03/17 03:33:09;;;;;;;70.63;48.85;;;;;;;;;;5051174;28;20047;-69
2022/03/17 03:39:36;;;;;;;72.80;46.83;;;;;;;;;;5050984;28;20500;-69
2022/03/17 03:42:41;;;;;;;72.38;47.45;;;;;;;;;;5051035;28;20389;-69
2022/03/17 03:45:45;;;;;;;75.38;47.80;;;;;;;;;;5050391;28;20051;-69
2022/03/17 03:48:49;;;;;;;71.93;49.50;;;;;;;;;;5050982;28;20043;-69
2022/03/17 03:51:53;;;;;;;77.57;49.17;;;;;;;;;;5050723;28;20051;-68
2022/03/17 03:54:58;;;;;;;72.47;48.35;;;;;;;;;;5051099;28;20044;-69
2022/03/17 03:58:02;;;;;;;74.93;49.63;;;;;;;;;;5051150;28;20404;-67
2022/03/17 04:01:07;;;;;;;78.22;51.28;;;;;;;;;;5050939;28;20064;-69
2022/03/17 04:04:16;;;;;;;75.05;51.65;;;;;;;;;;5050809;28;20504;-69
2022/03/17 04:07:21;;;;;;;84.25;51.50;;;;;;;;;;5050935;28;20397;-68
2022/03/17 04:10:25;;;;;;;86.82;54.35;;;;;;;;;;5049619;28;20040;-69
2022/03/17 04:13:30;;;;;;;79.47;53.88;;;;;;;;;;5050706;28;20052;-70
2022/03/17 04:16:34;;;;;;;80.70;53.58;;;;;;;;;;5050828;28;20052;-69
2022/03/17 04:19:38;;;;;;;80.88;54.42;;;;;;;;;;5050737;28;20067;-69
2022/03/17 04:22:42;;;;;;;71.25;50.50;;;;;;;;;;5050550;28;20044;-69
2022/03/17 04:25:47;;;;;;;84.05;50.97;;;;;;;;;;5050488;28;20040;-69
2022/03/17 04:28:51;;;;;;;78.38;48.97;;;;;;;;;;5054443;28;20392;-69
2022/03/17 04:31:56;;;;;;;67.65;48.30;;;;;;;;;;5054634;28;20619;-69
2022/03/17 04:35:00;;;;;;;65.00;45.92;;;;;;;;;;5054592;28;20047;-69
2022/03/17 04:38:04;;;;;;;70.82;45.97;;;;;;;;;;5054558;28;20397;-68
2022/03/17 04:41:09;;;;;;;75.40;48.78;;;;;;;;;;5054095;28;20067;-68
2022/03/17 04:44:14;;;;;;;74.85;44.55;;;;;;;;;;5053365;28;20048;-69
2022/03/17 04:47:18;;;;;;;81.18;47.05;;;;;;;;;;5054121;28;20059;-70
2022/03/17 04:50:22;;;;;;;67.85;45.42;;;;;;;;;;5054252;28;20048;-70
2022/03/17 04:53:27;;;;;;;69.57;46.85;;;;;;;;;;5053131;28;20048;-69
2022/03/17 04:56:31;;;;;;;77.07;49.22;;;;;;;;;;5054027;28;20047;-68
2022/03/17 04:59:35;;;;;;;69.43;46.63;;;;;;;;;;5053827;28;20040;-69
2022/03/17 05:02:40;;;;;;;64.55;43.05;;;;;;;;;;5053921;28;20044;-68
2022/03/17 05:05:44;;;;;;;61.72;42.08;;;;;;;;;;5053442;28;20111;-69
2022/03/17 05:08:49;;;;;;;68.68;43.38;;;;;;;;;;5053249;28;20048;-70
2022/03/17 05:11:53;;;;;;;65.38;41.67;;;;;;;;;;5053799;28;20511;-70
2022/03/17 05:14:58;;;;;;;63.03;40.70;;;;;;;;;;5053609;28;20052;-70
2022/03/17 05:18:03;;;;;;;73.72;40.47;;;;;;;;;;5053935;28;20115;-69
2022/03/17 05:21:07;;;;;;;56.30;40.38;;;;;;;;;;5053615;28;20044;-69
2022/03/17 05:24:11;;;;;;;61.97;41.55;;;;;;;;;;5053437;28;20416;-70
2022/03/17 05:27:16;;;;;;;66.75;40.20;;;;;;;;;;5053527;28;20040;-68
2022/03/17 05:30:20;;;;;;;62.10;41.55;;;;;;;;;;5052705;28;20039;-71
2022/03/17 05:33:24;;;;;;;66.63;42.35;;;;;;;;;;5052619;28;20056;-70
2022/03/17 05:36:29;;;;;;;69.38;42.53;;;;;;;;;;5052351;28;20040;-70
2022/03/17 05:39:33;;;;;;;62.03;39.53;;;;;;;;;;5052511;28;20039;-68
2022/03/17 05:42:37;;;;;;;63.08;39.53;;;;;;;;;;5052868;28;20063;-68
2022/03/17 05:45:43;;;;;;;60.22;40.30;;;;;;;;;;5052854;28;20400;-70
2022/03/17 05:48:48;;;;;;;84.68;42.45;;;;;;;;;;5052856;28;20413;-68
2022/03/17 05:51:53;;;;;;;60.75;41.03;;;;;;;;;;5052544;28;20056;-70
2022/03/17 05:54:57;;;;;;;68.50;42.47;;;;;;;;;;5051901;28;20397;-68
2022/03/17 05:58:01;;;;;;;65.82;44.13;;;;;;;;;;5052840;28;20043;-70
2022/03/17 06:01:06;;;;;;;76.25;44.80;;;;;;;;;;5052854;28;20048;-70
2022/03/17 06:04:10;;;;;;;64.22;43.38;;;;;;;;;;5052532;28;20040;-69
2022/03/17 06:07:14;;;;;;;68.15;42.53;;;;;;;;;;5052575;28;20048;-68
2022/03/17 06:10:24;;;;;;;71.40;43.50;;;;;;;;;;5052607;28;20389;-67
2022/03/17 06:13:29;;;;;;;73.68;42.00;;;;;;;;;;5052565;28;20504;-70
2022/03/17 06:16:34;;;;;;;77.35;43.03;;;;;;;;;;5052778;28;20060;-69
2022/03/17 06:19:38;;;;;;;86.90;42.85;;;;;;;;;;5052488;28;20040;-68
2022/03/17 06:22:44;;;;;;;72.30;42.75;;;;;;;;;;5052549;28;20064;-70
2022/03/17 06:25:49;;;;;;;78.95;43.75;;;;;;;;;;5052625;28;20056;-68
2022/03/17 06:28:53;;;;;;;80.53;43.70;;;;;;;;;;5052097;28;20060;-68
2022/03/17 06:31:58;;;;;;;71.82;42.70;;;;;;;;;;5051365;28;20508;-69
2022/03/17 06:35:02;;;;;;;81.53;44.47;;;;;;;;;;5052292;28;20099;-68
2022/03/17 06:38:07;;;;;;;66.75;42.80;;;;;;;;;;5052478;28;20111;-67
2022/03/17 06:41:11;;;;;;;68.82;41.67;;;;;;;;;;5051812;28;20519;-69
2022/03/17 06:44:15;;;;;;;60.60;39.83;;;;;;;;;;5051831;28;20195;-68
2022/03/17 06:47:20;;;;;;;56.70;39.10;;;;;;;;;;5052204;28;20044;-68
2022/03/17 06:50:25;;;;;;;61.40;39.55;;;;;;;;;;5051399;28;20048;-68
2022/03/17 06:53:29;;;;;;;61.35;38.20;;;;;;;;;;5051934;28;20412;-68
2022/03/17 06:56:34;;;;;;;64.72;41.90;;;;;;;;;;5051151;28;20048;-68
2022/03/17 06:59:38;;;;;;;67.82;42.28;;;;;;;;;;5051603;28;20048;-69
2022/03/17 07:02:43;;;;;;;59.40;40.80;;;;;;;;;;5051620;28;20068;-68
2022/03/17 07:05:47;;;;;;;65.95;40.15;;;;;;;;;;5051772;28;20519;-68
2022/03/17 07:08:51;;;;;;;63.05;42.33;;;;;;;;;;5051538;28;20036;-68
2022/03/17 07:11:55;;;;;;;65.15;38.67;;;;;;;;;;5051101;28;20052;-68
2022/03/17 07:14:59;;;;;;;66.25;42.40;;;;;;;;;;5051103;28;20056;-69
2022/03/17 07:18:04;;;;;;;62.97;42.67;;;;;;;;;;5050535;28;20051;-68
2022/03/17 07:21:08;;;;;;;60.92;41.42;;;;;;;;;;5051432;28;20040;-68
2022/03/17 07:24:13;;;;;;;61.05;41.33;;;;;;;;;;5051316;28;20051;-69
2022/03/17 07:27:17;;;;;;;67.30;41.92;;;;;;;;;;5051276;28;20043;-67
2022/03/17 07:30:24;;;;;;;59.70;38.42;;;;;;;;;;5050856;28;20048;-71
2022/03/17 07:33:28;;;;;;;54.40;35.33;;;;;;;;;;5050802;28;20056;-69
2022/03/17 07:36:33;;;;;;;46.22;27.80;;;;;;;;;;5039168;28;20043;-71
2022/03/17 07:39:37;;;;;;;34.17;21.63;;;;;;;;;;5050722;28;20453;-68
2022/03/17 07:42:42;;;;;;;31.50;11.88;;;;;;;;;;5051103;28;20035;-70
2022/03/17 07:46:04;;;;;;;14.80;9.60;;;;;;;;;;5050324;28;20048;-68
2022/03/17 07:49:31;;;;;;;12.95;9.35;;;;;;;;;;5050234;28;20404;-71
2022/03/17 07:52:35;;;;;;;19.60;9.38;;;;;;;;;;5050854;28;20069;-69
2022/03/17 07:55:39;;;;;;;11.38;7.47;;;;;;;;;;5050428;28;20045;-70
2022/03/17 07:58:44;;;;;;;12.15;6.85;;;;;;;;;;5049957;28;20405;-69
2022/03/17 08:01:49;;;;;;;14.20;7.30;;;;;;;;;;5049982;28;20041;-70
2022/03/17 08:04:54;;;;;;;23.80;7.40;;;;;;;;;;5049835;28;20040;-70
2022/03/17 08:08:00;;;;;;;23.20;6.75;;;;;;;;;;5050668;28;20314;-68
2022/03/17 08:11:04;;;;;;;11.10;6.35;;;;;;;;;;5050728;28;20048;-69
2022/03/17 08:14:09;;;;;;;18.02;6.88;;;;;;;;;;5050414;28;20045;-69
2022/03/17 08:17:13;;;;;;;12.02;6.70;;;;;;;;;;5050992;28;20037;-70
2022/03/17 08:20:18;;;;;;;14.52;6.88;;;;;;;;;;5049807;28;20453;-69
2022/03/17 08:23:22;;;;;;;10.88;7.00;;;;;;;;;;5050779;28;20396;-70
2022/03/17 08:26:26;;;;;;;14.18;7.13;;;;;;;;;;5050307;28;20045;-68
2022/03/17 08:29:31;;;;;;;15.63;7.80;;;;;;;;;;5050472;28;20041;-67
2022/03/17 08:32:35;;;;;;;18.00;7.43;;;;;;;;;;5050213;28;20045;-70
2022/03/17 08:35:40;;;;;;;13.50;6.88;;;;;;;;;;5050565;28;20192;-69
2022/03/17 08:38:44;;;;;;;10.40;6.03;;;;;;;;;;5050154;28;20507;-69
2022/03/17 08:41:48;;;;;;;18.27;7.18;;;;;;;;;;5050437;28;20384;-69
2022/03/17 08:44:53;;;;;;;12.95;6.50;;;;;;;;;;5050135;28;20041;-68
2022/03/17 08:51:21;;;;;;;14.85;8.20;;;;;;;;;;5050330;28;20040;-71
2022/03/17 08:54:26;;;;;;;13.50;6.47;;;;;;;;;;5049527;28;20048;-69
2022/03/17 08:57:30;;;;;;;10.10;6.05;;;;;;;;;;5050463;28;20040;-70
2022/03/17 09:00:35;;;;;;;10.68;5.70;;;;;;;;;;5050177;28;20052;-72
2022/03/17 09:03:39;;;;;;;17.55;6.38;;;;;;;;;;5050502;28;20388;-70
2022/03/17 09:06:43;;;;;;;16.45;5.97;;;;;;;;;;5050159;28;20044;-69
2022/03/17 09:09:48;;;;;;;10.63;5.10;;;;;;;;;;5049928;28;20056;-71
2022/03/17 09:12:57;;;;;;;14.05;5.50;;;;;;;;;;5051522;28;20048;-72
2022/03/17 09:16:01;;;;;;;13.20;6.00;;;;;;;;;;5053213;28;20405;-69
2022/03/17 09:19:05;;;;;;;10.48;5.20;;;;;;;;;;5052243;28;20044;-70
2022/03/17 09:22:10;;;;;;;13.63;5.10;;;;;;;;;;5053375;28;20041;-69
2022/03/17 09:25:14;;;;;;;11.02;5.68;;;;;;;;;;5053766;28;20049;-71
2022/03/17 09:28:18;;;;;;;11.43;5.40;;;;;;;;;;5053514;28;20048;-71
2022/03/17 09:31:23;;;;;;;13.00;5.55;;;;;;;;;;5053700;28;20041;-73
2022/03/17 09:34:31;;;;;;;20.55;6.72;;;;;;;;;;5053473;28;20064;-72
2022/03/17 09:37:35;;;;;;;10.43;5.35;;;;;;;;;;5053357;28;20040;-72
2022/03/17 09:40:39;;;;;;;15.98;5.68;;;;;;;;;;5053223;28;20056;-68
2022/03/17 09:43:43;;;;;;;32.42;6.53;;;;;;;;;;5053167;28;20419;-68
2022/03/17 09:46:48;;;;;;;25.60;6.22;;;;;;;;;;5052170;28;20048;-68
2022/03/17 09:49:54;;;;;;;11.70;6.07;;;;;;;;;;5052627;28;20045;-68
2022/03/17 09:52:59;;;;;;;21.25;6.03;;;;;;;;;;5052773;28;20052;-71
2022/03/17 09:56:04;;;;;;;8.85;5.80;;;;;;;;;;5052789;28;20048;-68
2022/03/17 09:59:09;;;;;;;12.07;6.30;;;;;;;;;;5052657;28;20045;-67
2022/03/17 10:02:16;;;;;;;16.80;6.00;;;;;;;;;;5051966;28;20420;-67
2022/03/17 10:05:21;;;;;;;11.13;6.22;;;;;;;;;;5052727;28;20048;-66
2022/03/17 10:08:25;;;;;;;17.80;6.78;;;;;;;;;;5052363;28;20041;-68
2022/03/17 10:11:31;;;;;;;12.15;6.10;;;;;;;;;;5052727;28;20390;-67
2022/03/17 10:14:36;;;;;;;14.80;6.75;;;;;;;;;;5051303;28;20056;-74
2022/03/17 10:17:41;;;;;;;13.30;6.40;;;;;;;;;;5052755;28;20044;-71
2022/03/17 10:20:46;;;;;;;14.60;6.47;;;;;;;;;;5052382;28;20056;-68
2022/03/17 10:23:54;;;;;;;11.35;6.65;;;;;;;;;;5051411;28;20041;-68
2022/03/17 10:26:59;;;;;;;15.80;6.47;;;;;;;;;;5052029;28;20049;-67
2022/03/17 10:30:08;;;;;;;15.18;6.95;;;;;;;;;;5052414;28;20032;-67
2022/03/17 10:33:20;;;;;;;13.10;6.40;;;;;;;;;;5051905;28;20045;-71
2022/03/17 10:36:24;;;;;;;18.00;7.30;;;;;;;;;;5052032;28;20048;-68
2022/03/17 10:39:35;;;;;;;20.75;6.93;;;;;;;;;;5051539;28;20051;-68
2022/03/17 10:42:40;;;;;;;11.30;6.50;;;;;;;;;;5052454;28;20465;-69
2022/03/17 10:45:45;;;;;;;19.50;7.18;;;;;;;;;;5051887;28;20067;-66
2022/03/17 10:49:08;;;;;;;22.30;7.63;;;;;;;;;;5051985;28;20045;-67
2022/03/17 10:52:12;;;;;;;12.27;7.35;;;;;;;;;;5051552;28;20041;-70
2022/03/17 10:55:25;;;;;;;15.77;7.93;;;;;;;;;;5051410;28;20045;-67
2022/03/17 10:58:29;;;;;;;14.80;7.88;;;;;;;;;;5051488;28;20041;-72
2022/03/17 11:01:45;;;;;;;19.25;7.32;;;;;;;;;;5051992;28;20033;-71
2022/03/17 11:04:49;;;;;;;14.32;8.40;;;;;;;;;;5051652;28;20041;-68
2022/03/17 11:07:54;;;;;;;12.32;7.28;;;;;;;;;;5051524;28;20037;-66
2022/03/17 11:10:59;;;;;;;15.75;7.43;;;;;;;;;;5051542;28;20052;-68
2022/03/17 11:14:04;;;;;;;17.33;8.40;;;;;;;;;;5051506;28;20144;-67
2022/03/17 11:17:10;;;;;;;12.27;6.80;;;;;;;;;;5051367;28;20045;-69
2022/03/17 11:20:18;;;;;;;15.23;7.22;;;;;;;;;;5050226;28;20040;-68
2022/03/17 11:23:35;;;;;;;12.27;7.15;;;;;;;;;;5050981;28;20376;-72
2022/03/17 11:26:40;;;;;;;13.15;6.88;;;;;;;;;;5051161;28;20045;-67
2022/03/17 11:29:46;;;;;;;12.95;7.68;;;;;;;;;;5050168;28;20046;-74
2022/03/17 11:32:51;;;;;;;13.88;7.25;;;;;;;;;;5050775;28;20041;-72
2022/03/17 11:35:59;;;;;;;21.42;7.35;;;;;;;;;;5050644;28;20029;-74
2022/03/17 11:39:19;;;;;;;19.00;7.60;;;;;;;;;;5050662;28;20044;-70
2022/03/17 11:42:33;;;;;;;11.52;6.90;;;;;;;;;;5050899;28;20037;-67
2022/03/17 11:45:40;;;;;;;12.18;6.72;;;;;;;;;;5050306;28;20050;-77
2022/03/17 11:48:45;;;;;;;12.77;6.80;;;;;;;;;;5050857;28;20051;-68
2022/03/17 11:52:09;;;;;;;14.30;6.90;;;;;;;;;;5050842;28;20037;-71
2022/03/17 11:55:33;;;;;;;14.60;7.13;;;;;;;;;;5050901;28;20037;-69
2022/03/17 11:58:40;;;;;;;14.18;7.75;;;;;;;;;;5051486;28;20507;-70
2022/03/17 12:01:46;;;;;;;13.25;7.05;;;;;;;;;;5050119;28;20037;-72
2022/03/17 12:04:51;;;;;;;11.93;6.75;;;;;;;;;;5050850;28;20036;-68
2022/03/17 12:08:00;;;;;;;11.27;6.82;;;;;;;;;;5050493;28;20037;-69
2022/03/17 12:11:14;;;;;;;15.70;6.22;;;;;;;;;;5050454;28;20037;-68
2022/03/17 12:14:24;;;;;;;13.63;7.60;;;;;;;;;;5050053;28;20055;-68
2022/03/17 12:17:29;;;;;;;17.15;7.22;;;;;;;;;;5050345;28;20064;-67
2022/03/17 12:20:45;;;;;;;34.13;7.68;;;;;;;;;;5050489;28;20389;-67
2022/03/17 12:23:50;;;;;;;16.48;6.93;;;;;;;;;;5050674;28;20037;-68
2022/03/17 12:27:10;;;;;;;11.70;6.85;;;;;;;;;;5050827;28;20107;-67
2022/03/17 12:30:15;;;;;;;19.63;7.10;;;;;;;;;;5049101;28;20052;-67
2022/03/17 12:33:20;;;;;;;13.68;6.13;;;;;;;;;;5049509;28;20064;-70
2022/03/17 12:36:24;;;;;;;18.13;6.35;;;;;;;;;;5050716;28;20231;-67
2022/03/17 12:39:32;;;;;;;17.88;6.45;;;;;;;;;;5050241;28;20420;-68
2022/03/17 12:42:41;;;;;;;16.15;5.82;;;;;;;;;;5050473;28;20025;-67
2022/03/17 12:45:47;;;;;;;16.80;7.15;;;;;;;;;;5050580;28;20489;-68
2022/03/17 12:48:51;;;;;;;13.63;7.57;;;;;;;;;;5053389;28;20041;-68
2022/03/17 12:52:11;;;;;;;16.38;6.25;;;;;;;;;;5053711;28;20029;-68
2022/03/17 12:55:16;;;;;;;12.20;5.97;;;;;;;;;;5053915;28;20532;-67
2022/03/17 12:58:20;;;;;;;10.90;6.60;;;;;;;;;;5053306;28;20033;-68
2022/03/17 13:01:24;;;;;;;11.70;5.60;;;;;;;;;;5053956;28;20040;-68
2022/03/17 13:04:28;;;;;;;13.13;5.95;;;;;;;;;;5053709;28;20041;-68
2022/03/17 13:07:36;;;;;;;13.13;5.82;;;;;;;;;;5053270;28;20041;-68
2022/03/17 13:14:21;;;;;;;17.23;6.15;;;;;;;;;;5053685;28;20481;-70
2022/03/17 13:17:45;;;;;;;14.57;7.00;;;;;;;;;;5053903;28;20055;-75
2022/03/17 13:20:53;;;;;;;14.13;5.15;;;;;;;;;;5051416;28;20029;-71
2022/03/17 13:23:57;;;;;;;10.85;5.38;;;;;;;;;;5051968;28;20041;-69
2022/03/17 13:27:01;;;;;;;10.88;5.78;;;;;;;;;;5052825;28;20045;-71
2022/03/17 13:30:17;;;;;;;13.32;5.28;;;;;;;;;;5052635;28;20051;-68
2022/03/17 13:33:28;;;;;;;34.97;7.00;;;;;;;;;;5052994;28;20509;-69
2022/03/17 13:36:51;;;;;;;19.50;5.28;;;;;;;;;;5053047;28;20037;-72
2022/03/17 13:40:01;;;;;;;16.40;6.15;;;;;;;;;;5053038;28;20048;-71
2022/03/17 13:43:06;;;;;;;13.23;5.88;;;;;;;;;;5053628;28;20033;-71
2022/03/17 13:46:17;;;;;;;10.20;5.55;;;;;;;;;;5051923;28;20046;-71
2022/03/17 13:49:27;;;;;;;13.57;5.65;;;;;;;;;;5053409;28;20048;-71
2022/03/17 13:52:31;;;;;;;13.30;5.97;;;;;;;;;;5053457;28;20217;-71
2022/03/17 13:55:38;;;;;;;16.15;7.13;;;;;;;;;;5053401;28;20044;-72
2022/03/17 13:58:43;;;;;;;15.70;6.68;;;;;;;;;;5053335;28;20053;-71
2022/03/17 14:02:07;;;;;;;17.13;6.07;;;;;;;;;;5053402;28;20041;-71
2022/03/17 14:05:15;;;;;;;13.27;5.90;;;;;;;;;;5052302;28;20042;-71
2022/03/17 14:08:21;;;;;;;12.70;6.18;;;;;;;;;;5052793;28;20052;-71
2022/03/17 14:11:26;;;;;;;12.10;5.60;;;;;;;;;;5052776;28;20033;-71
2022/03/17 14:14:34;;;;;;;8.35;5.80;;;;;;;;;;5052841;28;20052;-72
2022/03/17 14:17:38;;;;;;;10.65;5.60;;;;;;;;;;5053281;28;20469;-72
2022/03/17 14:20:42;;;;;;;11.27;5.93;;;;;;;;;;5052562;28;20060;-72
2022/03/17 14:27:10;;;;;;;17.33;5.88;;;;;;;;;;5053525;28;20037;-72
2022/03/17 14:30:14;;;;;;;13.63;6.63;;;;;;;;;;5052915;28;20040;-72
2022/03/17 14:33:19;;;;;;;17.02;7.20;;;;;;;;;;5051498;28;20060;-72
2022/03/17 14:36:24;;;;;;;10.10;6.38;;;;;;;;;;5051499;28;20045;-71
2022/03/17 14:39:30;;;;;;;16.92;6.68;;;;;;;;;;5052097;28;20037;-70
2022/03/17 14:42:34;;;;;;;12.82;6.30;;;;;;;;;;5052838;28;20048;-72
2022/03/17 14:45:38;;;;;;;12.20;6.55;;;;;;;;;;5052006;28;20043;-70
2022/03/17 14:48:43;;;;;;;13.05;6.22;;;;;;;;;;5051970;28;20473;-70
2022/03/17 14:51:47;;;;;;;14.15;6.55;;;;;;;;;;5052372;28;20052;-71
2022/03/17 14:54:52;;;;;;;11.27;6.18;;;;;;;;;;5052194;28;20044;-71
2022/03/17 14:57:56;;;;;;;13.15;6.47;;;;;;;;;;5051882;28;20037;-71
2022/03/17 15:01:00;;;;;;;21.80;7.07;;;;;;;;;;5052055;28;20052;-71
2022/03/17 15:04:05;;;;;;;15.85;7.13;;;;;;;;;;5050612;28;20048;-70
2022/03/17 15:07:09;;;;;;;16.27;6.25;;;;;;;;;;5051501;28;20048;-70
2022/03/17 15:10:14;;;;;;;13.80;6.03;;;;;;;;;;5051712;28;20493;-72
2022/03/17 15:13:18;;;;;;;10.93;6.40;;;;;;;;;;5051306;28;20056;-72
2022/03/17 15:16:22;;;;;;;14.80;7.05;;;;;;;;;;5051079;28;20060;-71
2022/03/17 15:19:26;;;;;;;25.38;7.80;;;;;;;;;;5051513;28;20055;-71
2022/03/17 15:22:31;;;;;;;17.88;7.07;;;;;;;;;;5051304;28;20400;-70
2022/03/17 15:25:35;;;;;;;21.90;7.03;;;;;;;;;;5051374;28;20033;-71
2022/03/17 15:32:02;;;;;;;18.58;7.47;;;;;;;;;;5051304;28;20040;-71
2022/03/17 15:35:12;;;;;;;12.52;6.82;;;;;;;;;;5039099;28;20581;-72
2022/03/17 15:38:16;;;;;;;17.67;7.15;;;;;;;;;;5051236;28;20045;-71
2022/03/17 15:41:20;;;;;;;13.60;7.70;;;;;;;;;;5051355;28;20473;-73
2022/03/17 15:44:25;;;;;;;13.07;7.65;;;;;;;;;;5050987;28;20499;-73
2022/03/17 15:47:29;;;;;;;15.93;7.75;;;;;;;;;;5050922;28;20037;-70
2022/03/17 15:50:33;;;;;;;14.10;7.60;;;;;;;;;;5051131;28;20037;-71
2022/03/17 15:53:38;;;;;;;14.23;7.47;;;;;;;;;;5050904;28;20606;-69
2022/03/17 15:56:43;;;;;;;25.17;9.00;;;;;;;;;;5050983;28;20040;-72
2022/03/17 15:59:47;;;;;;;14.40;7.93;;;;;;;;;;5050937;28;20084;-72
2022/03/17 16:02:51;;;;;;;20.63;8.65;;;;;;;;;;5050584;28;20506;-69
2022/03/17 16:05:56;;;;;;;18.83;7.90;;;;;;;;;;5050670;28;20400;-70
2022/03/17 16:09:02;;;;;;;17.05;8.95;;;;;;;;;;5050606;28;20041;-73
2022/03/17 16:15:29;;;;;;;18.48;9.25;;;;;;;;;;5050386;28;20056;-75
2022/03/17 16:18:34;;;;;;;21.80;9.02;;;;;;;;;;5050732;28;20392;-78
2022/03/17 16:21:38;;;;;;;19.20;8.45;;;;;;;;;;5050585;28;20046;-76
2022/03/17 16:24:42;;;;;;;17.73;8.45;;;;;;;;;;5054934;28;20400;-76
2022/03/17 16:27:52;;;;;;;20.33;11.55;;;;;;;;;;5053853;28;20037;-77
2022/03/17 16:30:57;;;;;;;15.35;8.75;;;;;;;;;;5054301;28;20044;-74
2022/03/17 16:34:01;;;;;;;21.02;8.43;;;;;;;;;;5054462;28;20483;-74
2022/03/17 16:37:06;;;;;;;19.00;9.00;;;;;;;;;;5054171;28;20400;-72
2022/03/17 16:40:12;;;;;;;25.08;9.85;;;;;;;;;;5054529;28;20041;-75
2022/03/17 16:43:16;;;;;;;19.33;8.68;;;;;;;;;;5054186;28;20053;-72
2022/03/17 16:46:20;;;;;;;22.52;9.70;;;;;;;;;;5053126;28;20049;-77
2022/03/17 16:49:25;;;;;;;23.65;10.00;;;;;;;;;;5053858;28;20037;-74
2022/03/17 16:52:30;;;;;;;26.65;10.13;;;;;;;;;;5053972;28;20405;-71
2022/03/17 16:55:34;;;;;;;30.35;10.55;;;;;;;;;;5054298;28;20068;-69
2022/03/17 16:58:38;;;;;;;36.00;8.73;;;;;;;;;;5053204;28;20048;-69
2022/03/17 17:01:43;;;;;;;30.08;10.20;;;;;;;;;;5054008;28;20044;-70
2022/03/17 17:04:47;;;;;;;44.58;22.23;;;;;;;;;;5053819;28;20040;-70
2022/03/17 17:07:53;;;;;;;30.92;17.77;;;;;;;;;;5054165;28;20052;-69
2022/03/17 17:10:57;;;;;;;41.83;19.35;;;;;;;;;;5052461;28;20397;-69
2022/03/17 17:14:02;;;;;;;24.20;9.25;;;;;;;;;;5053076;28;20048;-74
2022/03/17 17:17:07;;;;;;;28.70;9.25;;;;;;;;;;5051598;28;20058;-71
2022/03/17 17:20:13;;;;;;;24.33;9.38;;;;;;;;;;5052326;28;20048;-70
2022/03/17 17:33:27;;;;;;;47.13;14.52;;;;;;;;;;5051056;28;20056;-74
2022/03/17 17:36:31;;;;;;;36.70;15.50;;;;;;;;;;5052277;28;20047;-74
2022/03/17 17:39:36;;;;;;;36.63;11.05;;;;;;;;;;5052187;28;20044;-71
2022/03/17 17:42:40;;;;;;;30.75;12.38;;;;;;;;;;5051744;28;20405;-73
2022/03/17 17:45:46;;;;;;;34.97;13.43;;;;;;;;;;5051988;28;20067;-73
2022/03/17 17:48:50;;;;;;;28.92;12.30;;;;;;;;;;5039320;28;20051;-69
2022/03/17 17:51:54;;;;;;;29.55;11.07;;;;;;;;;;5051663;28;20052;-73
2022/03/17 17:54:59;;;;;;;28.85;11.27;;;;;;;;;;5051592;28;20408;-74
2022/03/17 17:58:03;;;;;;;31.50;11.98;;;;;;;;;;5051466;28;20048;-73
2022/03/17 18:01:08;;;;;;;28.90;10.70;;;;;;;;;;5051404;28;20040;-70
2022/03/17 18:04:13;;;;;;;55.17;26.83;;;;;;;;;;5050023;28;20068;-70
2022/03/17 18:07:18;;;;;;;35.60;11.02;;;;;;;;;;5049992;28;20044;-71
2022/03/17 18:10:23;;;;;;;33.60;13.23;;;;;;;;;;5050451;28;20052;-70
2022/03/17 18:13:28;;;;;;;38.97;14.82;;;;;;;;;;5051131;28;20056;-73
2022/03/17 18:16:33;;;;;;;29.20;13.45;;;;;;;;;;5009861;28;1198736;-71
2022/03/17 18:19:37;;;;;;;35.25;11.52;;;;;;;;;;5051982;28;20048;-82
2022/03/17 18:22:41;;;;;;;24.40;12.68;;;;;;;;;;5052724;28;20048;-82
2022/03/17 18:25:46;;;;;;;31.33;12.60;;;;;;;;;;5052941;28;20427;-80
2022/03/17 18:28:51;;;;;;;25.40;12.43;;;;;;;;;;5052920;28;20040;-79
2022/03/17 18:31:55;;;;;;;37.08;11.48;;;;;;;;;;5053143;28;20043;-82
2022/03/17 18:34:59;;;;;;;44.03;17.23;;;;;;;;;;5052541;28;20075;-72
2022/03/17 18:38:05;;;;;;;37.10;12.10;;;;;;;;;;5052224;28;20044;-69
2022/03/17 18:41:09;;;;;;;31.83;12.80;;;;;;;;;;5050187;28;20397;-70
2022/03/17 18:44:14;;;;;;;41.60;13.20;;;;;;;;;;5050265;28;20371;-71
2022/03/17 18:47:18;;;;;;;44.08;16.05;;;;;;;;;;5049268;28;20044;-70